Cowlington, Oklahoma
Current Conditions -  °F | °C
As of 8:35 PM on Friday 21 Nov 2014 (Local Time) from KGZL Reporting Station
Overcast Overcast  
Wind Chill: 50°   Ceiling: 1300
Heat Index: 50°   Visibility: 10mi
Dew Point: 46°   Wind: 9mph
Humidity: 87%   Direction: 110°ESE
Pressure: 30.14"   Gusts: NA
Location:  35.2597°N, 94.8795°W
Report Text: KGZL 220235Z AUTO 11008KT 10SM OVC013 10/08 A3014 RMK AO2
Loading
Personal Weather Stations






























Interactive Weather Map New forecast layout! Learn more

10-Day Weather Forecast

Advertisements
Track Severe Weather on mobile